Time;durP1;ratioP1;P1;durP2;ratioP2;P2;SDS_P1;SDS_P2;PMS_P1;PMS_P2;Temp;Humidity;BMP_temperature;BMP_pressure;BME280_temperature;BME280_humidity;BME280_pressure;Samples;Min_cycle;Max_cycle;Signal;HPM_P1;HPM_P2
2021/12/27 00:00:26;;;;;;;12.65;6.75;;;1.70;99.90;;;;;;5049708;28;20036;-87
2021/12/27 00:02:57;;;;;;;13.15;6.63;;;-0.40;99.90;;;;;;5047247;28;20047;-87
2021/12/27 00:05:23;;;;;;;13.05;5.95;;;-0.60;99.90;;;;;;5049677;28;20067;-87
2021/12/27 00:07:51;;;;;;;14.75;7.10;;;-0.60;99.90;;;;;;5048658;28;20451;-86
2021/12/27 00:10:24;;;;;;;13.75;6.57;;;-0.70;99.90;;;;;;5065170;28;20054;-86
2021/12/27 00:13:13;;;;;;;10.15;5.93;;;1.50;99.90;;;;;;5049078;28;20055;-86
2021/12/27 00:15:43;;;;;;;12.02;6.68;;;-0.50;99.90;;;;;;5064528;28;20048;-87
2021/12/27 00:18:24;;;;;;;11.55;5.53;;;0.00;99.90;;;;;;5065982;28;20051;-87
2021/12/27 00:21:04;;;;;;;13.02;5.45;;;-0.80;99.90;;;;;;5063921;28;20048;-86
2021/12/27 00:23:33;;;;;;;9.88;6.53;;;-0.50;99.90;;;;;;5048369;28;20086;-86
2021/12/27 00:25:59;;;;;;;13.25;6.90;;;1.40;99.90;;;;;;5047845;28;20127;-87
2021/12/27 00:28:25;;;;;;;10.73;5.72;;;1.10;99.90;;;;;;5047665;28;20048;-85
2021/12/27 00:30:50;;;;;;;11.80;6.13;;;1.10;99.90;;;;;;5065767;28;20044;-85
2021/12/27 00:33:16;;;;;;;19.58;7.50;;;1.00;99.90;;;;;;5046862;28;20036;-85
2021/12/27 00:35:42;;;;;;;10.90;6.40;;;-0.70;99.90;;;;;;5047557;28;20066;-85
2021/12/27 00:38:09;;;;;;;12.23;6.57;;;-0.90;99.90;;;;;;5063056;28;20051;-85
2021/12/27 00:40:40;;;;;;;13.32;7.07;;;1.60;99.90;;;;;;5015750;28;20048;-85
2021/12/27 00:43:06;;;;;;;13.90;6.35;;;1.30;99.90;;;;;;5032073;28;20109;-86
2021/12/27 00:45:32;;;;;;;14.23;6.32;;;-0.90;99.90;;;;;;5048045;28;20044;-85
2021/12/27 00:47:58;;;;;;;12.60;6.22;;;-1.40;99.90;;;;;;5032095;28;20040;-83
2021/12/27 00:50:24;;;;;;;12.57;5.80;;;0.30;99.90;;;;;;5031377;28;20040;-85
2021/12/27 00:52:50;;;;;;;12.50;6.13;;;-1.00;99.90;;;;;;5065580;28;20066;-86
2021/12/27 00:55:16;;;;;;;10.38;5.97;;;-0.80;99.90;;;;;;5064804;28;20162;-85
2021/12/27 00:57:41;;;;;;;17.02;6.60;;;-0.70;99.90;;;;;;5049460;28;20547;-86
2021/12/27 01:00:13;;;;;;;10.95;6.55;;;-0.70;99.90;;;;;;5064942;28;20058;-85
2021/12/27 01:02:39;;;;;;;13.80;6.45;;;-0.80;99.90;;;;;;5050023;28;20075;-85
2021/12/27 01:05:06;;;;;;;12.95;6.13;;;-0.80;99.90;;;;;;5069845;28;20044;-86
2021/12/27 01:07:32;;;;;;;13.15;6.53;;;-0.80;99.90;;;;;;5068481;28;20040;-86
2021/12/27 01:17:57;;;;;;;12.43;6.57;;;-0.90;99.90;;;;;;5008250;28;20346;-85
2021/12/27 01:20:24;;;;;;;12.68;6.10;;;-0.20;99.90;;;;;;5007410;28;20106;-85
2021/12/27 01:22:52;;;;;;;11.80;6.30;;;1.00;99.90;;;;;;5036924;28;20040;-85
2021/12/27 01:25:18;;;;;;;13.50;7.63;;;-1.00;99.90;;;;;;5050998;28;20080;-85
2021/12/27 01:27:45;;;;;;;14.60;6.88;;;-1.00;99.90;;;;;;5036358;28;20043;-85
2021/12/27 01:30:15;;;;;;;13.38;6.55;;;-1.10;99.90;;;;;;5067456;28;20040;-85
2021/12/27 01:32:47;;;;;;;14.13;8.05;;;-1.00;99.90;;;;;;5051811;28;20036;-85
2021/12/27 01:35:13;;;;;;;14.10;7.03;;;-1.10;99.90;;;;;;5051856;28;20170;-85
2021/12/27 01:37:39;;;;;;;12.20;6.47;;;-1.10;99.90;;;;;;5050766;28;20122;-86
2021/12/27 01:40:06;;;;;;;14.98;7.47;;;-1.10;99.90;;;;;;5052326;28;20044;-85
2021/12/27 01:42:32;;;;;;;10.30;5.97;;;-1.10;99.90;;;;;;5085988;28;20040;-85
2021/12/27 01:44:57;;;;;;;13.02;6.90;;;0.90;99.90;;;;;;5052041;28;20472;-87
2021/12/27 01:47:23;;;;;;;10.20;5.85;;;0.80;99.90;;;;;;5067337;28;20055;-86
2021/12/27 01:49:49;;;;;;;12.80;6.68;;;-1.10;99.90;;;;;;5067871;28;20047;-86
2021/12/27 01:52:14;;;;;;;14.45;5.95;;;-1.10;99.90;;;;;;5068661;28;20051;-86
2021/12/27 01:54:40;;;;;;;12.85;6.65;;;-1.10;99.90;;;;;;5067294;28;20040;-86
2021/12/27 01:57:06;;;;;;;12.07;6.38;;;-1.10;99.90;;;;;;5051391;28;20060;-86
2021/12/27 01:59:32;;;;;;;11.60;5.80;;;-1.10;99.90;;;;;;5050825;28;20036;-87
2021/12/27 02:01:58;;;;;;;12.82;6.93;;;-1.10;99.90;;;;;;5051987;28;20069;-87
2021/12/27 02:04:24;;;;;;;12.23;7.35;;;-1.10;99.90;;;;;;5050989;28;20044;-87
2021/12/27 02:06:50;;;;;;;13.32;6.75;;;-1.10;99.90;;;;;;5069169;28;20082;-87
2021/12/27 02:09:20;;;;;;;14.88;8.00;;;-1.10;99.90;;;;;;5052294;28;20285;-86
2021/12/27 02:11:47;;;;;;;15.45;7.32;;;-0.60;99.90;;;;;;5035275;28;20113;-86
2021/12/27 02:14:12;;;;;;;15.60;7.55;;;-1.10;99.90;;;;;;5041611;28;20074;-86
2021/12/27 02:16:38;;;;;;;12.55;6.88;;;-1.10;99.90;;;;;;5095958;28;20060;-86
2021/12/27 02:19:04;;;;;;;12.80;6.72;;;0.50;99.90;;;;;;5063264;28;20040;-87
2021/12/27 02:21:29;;;;;;;12.48;6.97;;;-1.10;99.90;;;;;;5061496;28;20144;-86
2021/12/27 02:23:57;;;;;;;14.23;7.13;;;-1.10;99.90;;;;;;5056355;28;20044;-86
2021/12/27 02:26:22;;;;;;;12.80;7.55;;;-0.90;99.90;;;;;;5071304;28;20423;-87
2021/12/27 02:28:48;;;;;;;14.52;6.40;;;-1.00;99.90;;;;;;5051787;28;20043;-86
2021/12/27 02:31:16;;;;;;;14.23;7.55;;;-1.10;99.90;;;;;;5054550;28;20047;-87
2021/12/27 02:33:43;;;;;;;12.15;7.28;;;-1.00;99.90;;;;;;5051440;28;20522;-87
2021/12/27 02:36:11;;;;;;;13.60;6.80;;;-1.00;99.90;;;;;;5038923;28;20047;-86
2021/12/27 02:38:40;;;;;;;11.80;7.40;;;-1.00;99.90;;;;;;5068660;28;20399;-86
2021/12/27 02:41:07;;;;;;;15.02;7.20;;;-1.00;99.90;;;;;;5067743;28;20486;-86
2021/12/27 02:43:35;;;;;;;12.23;7.28;;;-0.60;99.90;;;;;;5050589;28;20396;-87
2021/12/27 02:46:08;;;;;;;14.45;7.75;;;-1.00;99.90;;;;;;5050499;28;20097;-87
2021/12/27 02:48:40;;;;;;;15.95;7.97;;;-1.00;99.90;;;;;;5050716;28;20080;-86
2021/12/27 02:51:07;;;;;;;15.40;8.07;;;-0.90;99.90;;;;;;5049966;28;20040;-86
2021/12/27 02:53:33;;;;;;;13.88;7.70;;;0.30;99.90;;;;;;5067473;28;20540;-86
2021/12/27 02:56:00;;;;;;;13.25;7.43;;;-0.90;99.90;;;;;;5049439;28;20051;-86
2021/12/27 02:58:26;;;;;;;16.35;8.07;;;-0.90;99.90;;;;;;5050217;28;20095;-86
2021/12/27 03:00:53;;;;;;;11.52;6.93;;;-0.90;99.90;;;;;;5066555;28;20491;-86
2021/12/27 03:03:19;;;;;;;14.70;7.32;;;-0.90;99.90;;;;;;5049301;28;20048;-87
2021/12/27 03:05:46;;;;;;;15.93;7.13;;;-0.90;99.90;;;;;;5066856;28;20096;-86
2021/12/27 03:08:15;;;;;;;16.15;8.43;;;-0.90;99.90;;;;;;5066749;28;20590;-86
2021/12/27 03:10:48;;;;;;;14.18;7.25;;;-0.90;99.90;;;;;;5051066;28;20479;-86
2021/12/27 03:13:25;;;;;;;13.57;7.25;;;0.50;99.90;;;;;;5066087;28;20040;-86
2021/12/27 03:15:52;;;;;;;15.77;7.05;;;-0.80;99.90;;;;;;5050077;28;20150;-87
2021/12/27 03:18:18;;;;;;;13.02;7.68;;;0.80;99.90;;;;;;5049937;28;20044;-87
2021/12/27 03:20:44;;;;;;;17.25;8.00;;;-0.80;99.90;;;;;;5032012;28;20059;-87
2021/12/27 03:23:10;;;;;;;15.55;8.02;;;-0.80;99.90;;;;;;5033657;28;20040;-86
2021/12/27 03:25:36;;;;;;;16.90;7.63;;;-0.80;99.90;;;;;;5048671;28;20048;-86
2021/12/27 03:28:02;;;;;;;14.68;7.57;;;-0.80;99.90;;;;;;5085383;28;20041;-86
2021/12/27 03:30:29;;;;;;;15.50;7.90;;;-0.80;99.90;;;;;;5049125;28;20036;-86
2021/12/27 03:32:55;;;;;;;15.15;7.65;;;-0.80;99.90;;;;;;5066042;28;20071;-86
2021/12/27 03:35:26;;;;;;;13.20;7.93;;;-0.80;99.90;;;;;;5066172;28;20054;-86
2021/12/27 03:37:55;;;;;;;16.17;8.15;;;1.40;99.90;;;;;;5066297;28;20435;-86
2021/12/27 03:40:22;;;;;;;15.48;7.85;;;-0.80;99.90;;;;;;5049928;28;20051;-86
2021/12/27 03:42:51;;;;;;;15.60;8.07;;;-0.70;99.90;;;;;;5048616;28;20074;-86
2021/12/27 03:45:20;;;;;;;15.43;8.07;;;-0.70;99.90;;;;;;5050416;28;20369;-86
2021/12/27 03:47:47;;;;;;;15.05;7.78;;;-0.80;99.90;;;;;;5049393;28;20438;-86
2021/12/27 03:50:13;;;;;;;15.00;7.13;;;-0.70;99.90;;;;;;5065615;28;20044;-86
2021/12/27 03:52:39;;;;;;;14.98;7.93;;;-0.70;99.90;;;;;;5049388;28;20090;-86
2021/12/27 03:55:06;;;;;;;17.02;7.82;;;-0.70;99.90;;;;;;5048629;28;20079;-86
2021/12/27 03:57:34;;;;;;;16.35;8.18;;;-0.70;99.90;;;;;;5016584;28;20048;-86
2021/12/27 04:02:41;;;;;;;14.93;7.80;;;-0.60;99.90;;;;;;5084396;28;20066;-86
2021/12/27 04:05:09;;;;;;;14.77;7.95;;;-0.60;99.90;;;;;;5049335;28;20131;-86
2021/12/27 04:07:36;;;;;;;16.65;8.40;;;-0.40;99.90;;;;;;5065540;28;20127;-86
2021/12/27 04:10:04;;;;;;;15.13;8.98;;;-0.60;99.90;;;;;;5066245;28;20078;-86
2021/12/27 04:12:30;;;;;;;14.40;8.85;;;-0.60;99.90;;;;;;5064951;28;20129;-86
2021/12/27 04:14:55;;;;;;;14.65;7.78;;;-0.60;99.90;;;;;;5032795;28;20043;-86
2021/12/27 04:17:21;;;;;;;14.88;7.38;;;1.40;99.90;;;;;;5031606;28;20077;-86
2021/12/27 04:19:47;;;;;;;12.73;7.53;;;-0.50;99.90;;;;;;5065897;28;20048;-86
2021/12/27 04:22:13;;;;;;;16.42;8.32;;;-0.50;99.90;;;;;;5048471;28;20059;-86
2021/12/27 04:24:38;;;;;;;16.58;8.07;;;-0.50;99.90;;;;;;5032599;28;20098;-86
2021/12/27 04:27:04;;;;;;;13.20;7.60;;;-0.50;99.90;;;;;;5048770;28;20044;-86
2021/12/27 04:29:30;;;;;;;19.25;8.60;;;-0.50;99.90;;;;;;5048604;28;20036;-86
2021/12/27 04:31:55;;;;;;;20.17;8.50;;;-0.50;99.90;;;;;;5048936;28;20495;-86
2021/12/27 04:34:21;;;;;;;13.75;8.18;;;-0.50;99.90;;;;;;5064758;28;20127;-86
2021/12/27 04:36:46;;;;;;;17.38;8.30;;;-0.50;99.90;;;;;;5035574;28;20040;-86
2021/12/27 04:39:12;;;;;;;19.50;8.30;;;-0.50;99.90;;;;;;5036210;28;20086;-86
2021/12/27 04:41:38;;;;;;;15.70;8.13;;;-0.50;99.90;;;;;;5052755;28;20097;-86
2021/12/27 04:44:04;;;;;;;15.63;7.28;;;-0.50;99.90;;;;;;5053660;28;20058;-86
2021/12/27 04:46:30;;;;;;;21.42;8.70;;;-0.40;99.90;;;;;;5069481;28;20380;-86
2021/12/27 04:48:56;;;;;;;15.63;8.82;;;-0.40;99.90;;;;;;5052522;28;20134;-86
2021/12/27 04:51:22;;;;;;;16.67;8.52;;;-0.50;99.90;;;;;;5051949;28;20135;-86
2021/12/27 04:53:49;;;;;;;13.70;8.73;;;-0.40;99.90;;;;;;5053201;28;20131;-86
2021/12/27 04:56:15;;;;;;;16.17;7.90;;;-0.40;99.90;;;;;;5034940;28;20063;-86
2021/12/27 04:58:44;;;;;;;21.70;10.35;;;-0.40;99.90;;;;;;5036346;28;20132;-86
2021/12/27 05:01:11;;;;;;;18.00;8.15;;;1.10;99.90;;;;;;5052675;28;20106;-86
2021/12/27 05:03:37;;;;;;;20.17;9.38;;;-0.40;99.90;;;;;;5068404;28;20059;-86
2021/12/27 05:06:03;;;;;;;20.35;9.90;;;-0.30;99.90;;;;;;5053132;28;20376;-86
2021/12/27 05:08:29;;;;;;;17.38;8.65;;;-0.30;99.90;;;;;;5051671;28;20123;-86
2021/12/27 05:10:54;;;;;;;19.63;8.07;;;-0.30;99.90;;;;;;5052565;28;20185;-86
2021/12/27 05:13:20;;;;;;;17.70;9.80;;;-0.30;99.90;;;;;;5034786;28;20051;-86
2021/12/27 05:15:46;;;;;;;16.80;8.98;;;1.40;99.90;;;;;;5052804;28;20043;-86
2021/12/27 05:18:13;;;;;;;18.13;8.88;;;-0.30;99.90;;;;;;5035627;28;20036;-86
2021/12/27 05:20:38;;;;;;;19.02;8.73;;;-0.20;99.90;;;;;;5035485;28;20121;-86
2021/12/27 05:23:04;;;;;;;17.15;9.25;;;-0.20;99.90;;;;;;5051770;28;20079;-86
2021/12/27 05:25:30;;;;;;;21.83;9.30;;;-0.20;99.90;;;;;;5068542;28;20040;-86
2021/12/27 05:27:56;;;;;;;18.23;9.57;;;-0.20;99.90;;;;;;5036146;28;20032;-86
2021/12/27 05:30:22;;;;;;;18.08;9.40;;;2.00;99.90;;;;;;5051902;28;20044;-86
2021/12/27 05:32:48;;;;;;;17.33;9.13;;;-0.50;99.90;;;;;;5052735;28;20075;-86
2021/12/27 05:35:15;;;;;;;19.48;8.30;;;1.90;99.90;;;;;;5086391;28;20067;-86
2021/12/27 05:37:42;;;;;;;17.42;9.80;;;0.10;99.90;;;;;;5068141;28;20062;-86
2021/12/27 05:40:13;;;;;;;17.02;9.18;;;-0.30;99.90;;;;;;5068710;28;20438;-86
2021/12/27 05:42:39;;;;;;;17.38;9.52;;;-0.10;99.90;;;;;;5086360;28;20406;-86
2021/12/27 05:45:06;;;;;;;18.35;8.60;;;0.90;99.90;;;;;;5069252;28;20044;-86
2021/12/27 05:47:32;;;;;;;21.00;9.93;;;-0.10;99.90;;;;;;5066871;28;20123;-86
2021/12/27 05:49:58;;;;;;;19.25;10.35;;;-0.10;99.90;;;;;;5068926;28;20083;-86
2021/12/27 05:52:23;;;;;;;19.00;10.02;;;1.80;99.90;;;;;;5068108;28;20148;-86
2021/12/27 05:54:49;;;;;;;18.85;9.63;;;0.00;99.90;;;;;;5051747;28;20546;-86
2021/12/27 05:57:15;;;;;;;15.90;8.65;;;0.00;99.90;;;;;;5068264;28;20059;-86
2021/12/27 05:59:41;;;;;;;21.02;10.70;;;0.00;99.90;;;;;;5067626;28;20121;-86
2021/12/27 06:02:06;;;;;;;23.00;9.77;;;0.00;99.90;;;;;;5052156;28;20100;-86
2021/12/27 06:04:32;;;;;;;17.17;10.40;;;1.40;99.90;;;;;;5050544;28;20052;-86
2021/12/27 06:06:58;;;;;;;19.58;9.00;;;-0.10;99.90;;;;;;5052387;28;20105;-86
2021/12/27 06:09:23;;;;;;;16.90;10.30;;;-0.10;99.90;;;;;;5017849;28;20420;-86
2021/12/27 06:11:49;;;;;;;20.17;10.20;;;-0.10;99.90;;;;;;5086471;28;20044;-86
2021/12/27 06:14:15;;;;;;;17.13;9.73;;;-0.10;99.90;;;;;;5051099;28;20372;-86
2021/12/27 06:16:40;;;;;;;18.42;10.82;;;-0.10;99.90;;;;;;5050825;28;20040;-87
2021/12/27 06:19:06;;;;;;;21.98;9.80;;;-0.10;99.90;;;;;;5051471;28;20077;-87
2021/12/27 06:21:33;;;;;;;20.75;10.98;;;1.60;99.90;;;;;;5067315;28;20035;-85
2021/12/27 06:24:00;;;;;;;20.92;11.48;;;1.90;99.90;;;;;;5068176;28;20086;-86
2021/12/27 06:26:26;;;;;;;18.35;10.65;;;0.00;99.90;;;;;;5051176;28;20044;-86
2021/12/27 06:28:52;;;;;;;26.58;11.98;;;0.20;99.90;;;;;;5084992;28;20051;-86
2021/12/27 06:31:17;;;;;;;19.10;10.73;;;0.00;99.90;;;;;;5067310;28;20036;-85
2021/12/27 06:33:43;;;;;;;21.98;11.98;;;0.00;99.90;;;;;;5050303;28;20135;-87
2021/12/27 06:36:09;;;;;;;20.38;10.85;;;0.00;99.90;;;;;;5051063;28;20110;-87
2021/12/27 06:38:35;;;;;;;20.05;11.18;;;-0.20;99.90;;;;;;5050146;28;20123;-87
2021/12/27 06:41:01;;;;;;;25.77;11.95;;;0.00;99.90;;;;;;5051531;28;20486;-86
2021/12/27 06:43:30;;;;;;;22.20;11.10;;;0.00;99.90;;;;;;5066840;28;20051;-87
2021/12/27 06:45:56;;;;;;;23.02;11.05;;;0.00;99.90;;;;;;5034543;28;20055;-86
2021/12/27 06:48:22;;;;;;;23.27;12.38;;;0.00;99.90;;;;;;5049945;28;20495;-86
2021/12/27 06:50:48;;;;;;;25.65;11.57;;;-0.30;99.90;;;;;;5034350;28;20126;-85
2021/12/27 06:53:15;;;;;;;26.23;11.77;;;0.00;99.90;;;;;;5067192;28;20443;-86
2021/12/27 06:55:45;;;;;;;24.10;12.13;;;1.00;99.90;;;;;;5050134;28;20044;-86
2021/12/27 06:58:11;;;;;;;27.63;12.32;;;0.10;99.90;;;;;;5067158;28;20048;-85
2021/12/27 07:00:37;;;;;;;24.33;12.57;;;1.80;99.90;;;;;;5066797;28;20052;-89
2021/12/27 07:03:03;;;;;;;27.08;12.38;;;1.90;99.90;;;;;;5033675;28;20040;-88
2021/12/27 07:05:29;;;;;;;23.13;11.00;;;2.20;99.90;;;;;;5066476;28;20062;-88
2021/12/27 07:07:54;;;;;;;23.90;11.50;;;0.10;99.90;;;;;;5067013;28;20048;-87
2021/12/27 07:10:22;;;;;;;22.73;11.50;;;0.90;99.90;;;;;;5033381;28;20047;-90
2021/12/27 07:12:49;;;;;;;29.30;12.80;;;0.10;99.90;;;;;;5066141;28;20048;-86
2021/12/27 07:15:15;;;;;;;26.90;12.77;;;0.10;99.90;;;;;;5067072;28;20040;-85
2021/12/27 07:17:41;;;;;;;29.65;13.18;;;0.10;99.90;;;;;;5066108;28;20379;-87
2021/12/27 07:20:07;;;;;;;26.92;11.85;;;0.20;99.90;;;;;;5066871;28;20043;-85
2021/12/27 07:22:33;;;;;;;26.35;12.02;;;0.20;99.90;;;;;;5049707;28;20415;-87
2021/12/27 07:24:59;;;;;;;28.80;12.35;;;2.40;99.90;;;;;;5066373;28;20052;-86
2021/12/27 07:27:24;;;;;;;24.88;12.38;;;0.20;99.90;;;;;;5066867;28;20220;-89
2021/12/27 07:29:50;;;;;;;27.70;11.38;;;0.20;99.90;;;;;;5049104;28;20086;-85
2021/12/27 07:32:16;;;;;;;34.03;12.80;;;-0.10;99.90;;;;;;5066763;28;20044;-87
2021/12/27 07:34:42;;;;;;;26.17;12.27;;;2.00;99.90;;;;;;5082595;28;20036;-87
2021/12/27 07:37:08;;;;;;;36.45;14.15;;;-0.10;99.90;;;;;;5066301;28;20048;-82
2021/12/27 07:39:34;;;;;;;28.45;13.13;;;0.20;99.90;;;;;;5082596;28;20043;-82
2021/12/27 07:42:00;;;;;;;24.88;11.55;;;0.20;99.90;;;;;;5066571;28;20056;-87
2021/12/27 07:44:26;;;;;;;29.10;11.90;;;2.00;99.90;;;;;;5050323;28;20423;-87
2021/12/27 07:46:52;;;;;;;31.83;11.68;;;0.60;99.90;;;;;;5065954;28;20125;-87
2021/12/27 07:49:17;;;;;;;27.70;11.70;;;0.20;99.90;;;;;;5049570;28;20047;-88
2021/12/27 07:51:44;;;;;;;25.88;11.23;;;0.20;99.90;;;;;;5048995;28;20044;-87
2021/12/27 07:54:10;;;;;;;27.05;12.77;;;0.20;99.90;;;;;;5066349;28;20091;-88
2021/12/27 07:56:37;;;;;;;33.53;13.23;;;0.20;99.90;;;;;;5032142;28;20087;-87
2021/12/27 07:59:04;;;;;;;29.33;11.90;;;0.20;99.90;;;;;;5049525;28;20044;-87
2021/12/27 08:01:35;;;;;;;30.13;12.70;;;0.20;99.90;;;;;;5049519;28;20071;-86
2021/12/27 08:04:02;;;;;;;28.55;12.02;;;0.20;99.90;;;;;;5065920;28;20059;-88
2021/12/27 08:06:28;;;;;;;25.67;12.50;;;0.80;99.90;;;;;;5048938;28;20072;-87
2021/12/27 08:08:54;;;;;;;27.20;13.68;;;1.40;99.90;;;;;;5048855;28;20079;-86
2021/12/27 08:11:20;;;;;;;23.42;12.63;;;0.30;99.90;;;;;;5065809;28;20113;-88
2021/12/27 08:13:46;;;;;;;35.53;14.48;;;2.10;99.90;;;;;;5049191;28;20471;-87
2021/12/27 08:16:12;;;;;;;23.88;12.27;;;0.20;99.90;;;;;;5048920;28;20071;-88
2021/12/27 08:18:41;;;;;;;34.25;13.45;;;0.20;99.90;;;;;;5065196;28;20051;-88
2021/12/27 08:21:07;;;;;;;27.65;12.95;;;0.30;99.90;;;;;;5048542;28;20044;-87
2021/12/27 08:23:32;;;;;;;34.33;13.90;;;2.40;99.90;;;;;;5050355;28;20036;-88
2021/12/27 08:25:58;;;;;;;30.17;12.57;;;0.00;99.90;;;;;;5050884;28;20428;-87
2021/12/27 08:28:24;;;;;;;29.95;13.45;;;1.70;99.90;;;;;;5050995;28;20046;-85
2021/12/27 08:30:50;;;;;;;30.50;12.77;;;0.40;99.90;;;;;;5066731;28;20043;-86
2021/12/27 08:33:16;;;;;;;25.75;12.60;;;2.30;99.90;;;;;;5067528;28;20070;-87
2021/12/27 08:35:42;;;;;;;25.70;13.15;;;0.40;99.90;;;;;;5050335;28;20506;-87
2021/12/27 08:38:08;;;;;;;35.33;12.00;;;0.30;99.90;;;;;;5087021;28;20055;-87
2021/12/27 08:40:34;;;;;;;30.77;13.20;;;0.40;99.90;;;;;;5069880;28;20052;-88
2021/12/27 08:42:59;;;;;;;31.13;12.68;;;0.40;99.90;;;;;;5084230;28;20054;-83
2021/12/27 08:45:25;;;;;;;27.67;12.45;;;2.70;99.90;;;;;;5066551;28;20054;-85
2021/12/27 08:47:53;;;;;;;33.67;13.55;;;0.50;99.90;;;;;;5083969;28;20098;-84
2021/12/27 08:50:19;;;;;;;24.52;12.05;;;2.10;99.90;;;;;;5067009;28;20133;-84
2021/12/27 08:52:45;;;;;;;26.85;13.18;;;0.50;99.90;;;;;;5049962;28;20067;-82
2021/12/27 08:55:12;;;;;;;31.70;13.27;;;0.50;99.90;;;;;;5066952;28;20071;-85
2021/12/27 08:57:39;;;;;;;30.67;13.48;;;0.50;99.90;;;;;;5050227;28;20036;-84
2021/12/27 09:00:08;;;;;;;26.90;12.80;;;0.50;99.90;;;;;;5066673;28;20106;-85
2021/12/27 09:02:34;;;;;;;31.55;14.13;;;0.50;99.90;;;;;;5085186;28;20048;-85
2021/12/27 09:05:00;;;;;;;25.02;13.80;;;0.50;99.90;;;;;;5065975;28;20036;-84
2021/12/27 09:07:26;;;;;;;30.88;13.10;;;0.60;99.90;;;;;;5065186;28;20150;-84
2021/12/27 09:09:51;;;;;;;39.92;14.77;;;0.50;99.90;;;;;;5066229;28;20079;-83
2021/12/27 09:12:18;;;;;;;33.60;13.57;;;0.60;99.90;;;;;;5066321;28;20480;-84
2021/12/27 09:14:44;;;;;;;39.15;14.35;;;0.60;99.90;;;;;;5083684;28;20066;-84
2021/12/27 09:17:10;;;;;;;33.38;14.20;;;0.30;99.90;;;;;;5083832;28;20048;-84
2021/12/27 09:19:36;;;;;;;52.75;16.55;;;0.70;99.90;;;;;;5066616;28;20069;-84
2021/12/27 09:22:03;;;;;;;32.75;14.00;;;0.70;99.90;;;;;;5065518;28;20119;-84
2021/12/27 09:24:31;;;;;;;39.30;14.48;;;0.70;99.90;;;;;;5068098;28;20044;-84
2021/12/27 09:26:58;;;;;;;43.85;15.60;;;1.20;99.90;;;;;;5085547;28;20052;-82
2021/12/27 09:29:24;;;;;;;38.25;15.23;;;0.70;99.90;;;;;;5087372;28;20623;-83
2021/12/27 09:31:50;;;;;;;34.83;13.35;;;0.70;99.90;;;;;;5069453;28;20055;-85
2021/12/27 09:34:17;;;;;;;33.10;14.75;;;2.70;99.90;;;;;;5069025;28;20036;-84
2021/12/27 09:36:43;;;;;;;42.70;14.20;;;0.50;99.90;;;;;;5088107;28;20048;-84
2021/12/27 09:39:09;;;;;;;32.97;13.70;;;2.20;99.90;;;;;;5087684;28;20093;-82
2021/12/27 09:41:35;;;;;;;36.78;14.45;;;0.80;99.90;;;;;;5087501;28;20059;-81
2021/12/27 09:44:01;;;;;;;35.72;14.20;;;0.90;99.90;;;;;;5068633;28;20050;-83
2021/12/27 09:46:27;;;;;;;32.03;13.68;;;0.80;99.90;;;;;;5051389;28;20040;-82
2021/12/27 09:48:55;;;;;;;36.92;14.70;;;2.30;99.90;;;;;;5067655;28;20044;-83
2021/12/27 09:51:22;;;;;;;34.97;14.05;;;0.90;99.90;;;;;;5051318;28;20399;-83
2021/12/27 09:53:49;;;;;;;33.85;14.82;;;0.90;99.90;;;;;;5068803;28;20447;-83
2021/12/27 09:56:15;;;;;;;37.20;13.52;;;0.90;99.90;;;;;;5068335;28;20097;-83
2021/12/27 09:58:41;;;;;;;33.65;14.27;;;0.90;99.90;;;;;;5068112;28;20044;-83
2021/12/27 10:01:08;;;;;;;40.78;13.82;;;0.30;99.90;;;;;;5070481;28;20063;-84
2021/12/27 10:03:50;;;;;;;40.47;14.90;;;3.20;99.90;;;;;;5052849;28;20067;-83
2021/12/27 10:06:16;;;;;;;31.08;13.35;;;1.00;99.90;;;;;;5050960;28;20503;-82
2021/12/27 10:08:54;;;;;;;41.33;15.23;;;1.80;99.90;;;;;;5089509;28;20047;-84
2021/12/27 10:11:20;;;;;;;41.10;15.00;;;1.00;99.90;;;;;;5072088;28;20040;-85
2021/12/27 10:14:09;;;;;;;32.25;14.43;;;1.00;99.90;;;;;;5037476;28;20186;-83
2021/12/27 10:16:44;;;;;;;32.55;13.07;;;1.00;99.90;;;;;;5069792;28;20055;-82
2021/12/27 10:19:11;;;;;;;35.72;14.65;;;0.20;99.90;;;;;;5087982;28;20040;-84
2021/12/27 10:21:41;;;;;;;35.60;13.40;;;0.80;99.90;;;;;;5052760;28;20059;-82
2021/12/27 10:24:14;;;;;;;32.67;13.60;;;1.00;99.90;;;;;;5086394;28;20133;-83
2021/12/27 10:26:42;;;;;;;37.33;14.48;;;0.90;99.90;;;;;;5069630;28;20154;-83
2021/12/27 10:29:14;;;;;;;37.72;14.18;;;1.10;99.90;;;;;;5070771;28;20556;-84
2021/12/27 10:32:06;;;;;;;31.67;13.53;;;1.10;99.90;;;;;;5071069;28;20459;-82
2021/12/27 10:34:43;;;;;;;38.65;13.88;;;1.10;99.90;;;;;;5055087;28;20052;-85
2021/12/27 10:37:17;;;;;;;33.03;13.35;;;1.10;99.90;;;;;;5074037;28;20087;-86
2021/12/27 10:40:03;;;;;;;36.08;15.80;;;1.10;99.90;;;;;;5071194;28;20055;-82
2021/12/27 10:42:36;;;;;;;32.30;14.60;;;1.10;99.90;;;;;;5053550;28;20045;-85
2021/12/27 10:45:22;;;;;;;42.85;16.40;;;1.10;99.90;;;;;;5070090;28;20071;-84
2021/12/27 10:47:48;;;;;;;45.40;14.55;;;3.00;99.90;;;;;;5052513;28;20059;-85
2021/12/27 10:50:18;;;;;;;31.33;14.32;;;1.20;99.90;;;;;;5071127;28;20048;-84
2021/12/27 10:52:54;;;;;;;44.97;16.40;;;1.20;99.90;;;;;;5053030;28;20392;-84
2021/12/27 10:55:26;;;;;;;44.88;15.57;;;1.20;99.90;;;;;;5069265;28;20047;-83
2021/12/27 10:58:08;;;;;;;43.88;15.88;;;1.30;99.90;;;;;;5067112;28;20056;-84
2021/12/27 11:00:34;;;;;;;42.10;15.40;;;1.30;99.90;;;;;;5066297;28;20048;-85
2021/12/27 11:03:02;;;;;;;43.75;15.23;;;1.30;99.90;;;;;;5066769;28;20492;-84
2021/12/27 11:05:30;;;;;;;47.03;16.33;;;1.30;99.90;;;;;;5066324;28;20044;-85
2021/12/27 11:08:01;;;;;;;43.80;15.40;;;1.40;99.90;;;;;;5049927;28;20066;-85
2021/12/27 11:10:29;;;;;;;43.33;16.75;;;2.00;99.90;;;;;;5049692;28;20496;-84
2021/12/27 11:12:59;;;;;;;42.28;15.73;;;2.90;99.90;;;;;;5066190;28;20757;-86
2021/12/27 11:15:27;;;;;;;41.08;15.75;;;1.40;99.90;;;;;;5066995;28;20076;-84
2021/12/27 11:17:54;;;;;;;55.30;16.70;;;1.50;99.90;;;;;;5084561;28;20040;-84
2021/12/27 11:20:20;;;;;;;45.72;16.92;;;1.50;99.90;;;;;;5084786;28;20043;-85
2021/12/27 11:22:46;;;;;;;51.70;15.90;;;1.50;99.90;;;;;;5065732;28;20504;-84
2021/12/27 11:25:22;;;;;;;50.08;15.68;;;1.60;99.90;;;;;;5049113;28;20039;-85
2021/12/27 11:27:48;;;;;;;57.80;17.00;;;1.50;99.90;;;;;;5066377;28;20036;-85
2021/12/27 11:30:16;;;;;;;55.47;16.85;;;2.70;99.90;;;;;;5048949;28;20036;-81
2021/12/27 11:33:06;;;;;;;44.70;16.05;;;3.70;99.90;;;;;;5049839;28;20063;-85
2021/12/27 11:35:40;;;;;;;48.25;15.82;;;1.70;99.90;;;;;;5066329;28;20434;-84
2021/12/27 11:38:06;;;;;;;53.78;18.52;;;1.70;99.90;;;;;;5065597;28;20059;-84
2021/12/27 11:40:41;;;;;;;57.35;17.58;;;1.80;99.90;;;;;;5083051;28;20407;-86
2021/12/27 11:43:08;;;;;;;49.80;16.83;;;2.70;99.90;;;;;;5048739;28;20047;-86
2021/12/27 11:45:50;;;;;;;59.28;16.50;;;2.50;99.90;;;;;;5083640;28;20398;-86
2021/12/27 11:48:19;;;;;;;40.85;11.82;;;1.80;99.90;;;;;;5065482;28;20097;-87
2021/12/27 11:51:00;;;;;;;43.63;14.27;;;3.40;99.90;;;;;;5049611;28;20398;-87
2021/12/27 11:53:33;;;;;;;48.67;15.90;;;1.80;99.90;;;;;;5066193;28;20487;-88
2021/12/27 11:56:01;;;;;;;61.38;17.58;;;1.80;99.90;;;;;;5048814;28;20052;-86
2021/12/27 11:58:35;;;;;;;58.20;17.20;;;3.60;99.90;;;;;;5065476;28;20044;-87
2021/12/27 12:01:22;;;;;;;58.42;16.45;;;2.90;99.90;;;;;;5065365;28;20105;-87
2021/12/27 12:03:50;;;;;;;60.10;17.55;;;1.80;99.90;;;;;;5065512;28;20125;-85
2021/12/27 12:06:40;;;;;;;51.05;15.57;;;1.80;99.90;;;;;;5065238;28;20527;-87
2021/12/27 12:09:24;;;;;;;45.35;16.20;;;1.80;99.90;;;;;;5083447;28;20071;-87
2021/12/27 12:12:05;;;;;;;50.25;16.70;;;1.90;99.90;;;;;;5065417;28;20044;-87
2021/12/27 12:14:35;;;;;;;47.90;18.15;;;1.80;99.90;;;;;;5048261;28;20499;-87
2021/12/27 12:17:04;;;;;;;44.35;15.43;;;1.80;99.90;;;;;;5048980;28;20383;-87
2021/12/27 12:19:47;;;;;;;66.38;16.77;;;1.80;99.90;;;;;;5065542;28;20170;-88
2021/12/27 12:22:42;;;;;;;56.90;16.08;;;1.80;99.90;;;;;;5048928;28;20074;-88
2021/12/27 12:25:20;;;;;;;48.50;15.95;;;1.80;99.90;;;;;;5065224;28;20043;-87
2021/12/27 12:27:59;;;;;;;49.58;16.75;;;1.90;99.90;;;;;;5048350;28;20511;-87
2021/12/27 12:30:28;;;;;;;35.60;15.20;;;1.90;99.90;;;;;;5065426;28;20055;-89
2021/12/27 12:33:05;;;;;;;48.58;16.52;;;2.00;99.90;;;;;;5048439;28;20577;-87
2021/12/27 12:35:39;;;;;;;61.70;16.92;;;2.00;99.90;;;;;;5048132;28;20044;-87
2021/12/27 12:38:29;;;;;;;48.97;16.00;;;2.00;99.90;;;;;;5048139;28;20052;-88
2021/12/27 12:41:27;;;;;;;48.78;14.57;;;2.00;99.90;;;;;;5048623;28;20051;-89
2021/12/27 12:43:56;;;;;;;49.28;15.65;;;2.00;99.90;;;;;;5063560;28;20101;-88
2021/12/27 12:46:41;;;;;;;57.22;17.75;;;4.00;99.90;;;;;;5048514;28;20087;-87
2021/12/27 12:49:18;;;;;;;68.30;18.48;;;2.10;99.90;;;;;;5066467;28;20102;-86
2021/12/27 12:51:54;;;;;;;50.35;17.13;;;4.10;99.90;;;;;;5086688;28;20305;-87
2021/12/27 12:54:22;;;;;;;61.53;15.65;;;2.10;99.90;;;;;;5051808;28;20113;-86